Time;durP1;ratioP1;P1;durP2;ratioP2;P2;SDS_P1;SDS_P2;PMS_P1;PMS_P2;Temp;Humidity;BMP_temperature;BMP_pressure;BME280_temperature;BME280_humidity;BME280_pressure;Samples;Min_cycle;Max_cycle;Signal;HPM_P1;HPM_P2
2020/12/25 00:01:28;;;;;;;0.60;0.60;;;4.90;99.90;;;5.22;100.00;-20824.19;5007915;28;20520;-70
2020/12/25 00:03:56;;;;;;;0.60;0.60;;;4.80;99.90;;;5.23;100.00;-20824.47;5013562;28;20508;-70
2020/12/25 00:06:24;;;;;;;0.60;0.50;;;4.80;99.90;;;5.12;100.00;-20821.41;5013399;28;20510;-70
2020/12/25 00:08:50;;;;;;;0.60;0.60;;;4.80;99.90;;;5.13;100.00;-20821.69;5013486;28;20434;-70
2020/12/25 00:11:17;;;;;;;0.60;0.60;;;4.70;99.90;;;5.18;100.00;-20823.19;5013033;28;20453;-70
2020/12/25 00:13:46;;;;;;;0.60;0.60;;;4.70;99.90;;;5.23;100.00;-20824.47;5013218;28;20413;-70
2020/12/25 00:16:13;;;;;;;0.60;0.50;;;4.70;99.90;;;5.24;100.00;-20824.88;5013438;28;20433;-70
2020/12/25 00:18:43;;;;;;;0.60;0.50;;;4.80;99.90;;;5.23;100.00;-20824.47;5013730;28;20938;-70
2020/12/25 00:21:10;;;;;;;0.63;0.60;;;4.80;99.90;;;5.21;100.00;-20824.03;5013487;28;20870;-70
2020/12/25 00:23:37;;;;;;;0.70;0.70;;;4.80;99.90;;;5.32;100.00;-20826.97;5013799;28;20980;-70
2020/12/25 00:26:04;;;;;;;0.70;0.60;;;4.80;99.90;;;5.25;100.00;-20825.16;5028142;28;20466;-71
2020/12/25 00:28:31;;;;;;;0.60;0.50;;;4.80;99.90;;;5.21;100.00;-20824.03;5006006;28;20474;-70
2020/12/25 00:30:58;;;;;;;0.60;0.60;;;4.80;99.90;;;5.29;100.00;-20826.13;5003877;28;20946;-70
2020/12/25 00:33:24;;;;;;;0.60;0.60;;;4.90;99.90;;;5.29;100.00;-20826.25;5013246;28;20489;-70
2020/12/25 00:35:52;;;;;;;0.60;0.50;;;4.90;99.90;;;5.17;100.00;-20822.94;5013419;28;20410;-70
2020/12/25 00:38:19;;;;;;;0.60;0.50;;;4.80;99.90;;;5.27;100.00;-20825.72;5013487;28;20484;-70
2020/12/25 00:40:46;;;;;;;0.60;0.57;;;4.90;99.90;;;5.29;100.00;-20826.25;5008221;28;20478;-70
2020/12/25 00:43:14;;;;;;;0.60;0.60;;;4.90;99.90;;;5.40;100.00;-20829.06;4993572;28;20915;-69
2020/12/25 00:45:41;;;;;;;0.60;0.50;;;4.90;99.90;;;5.38;100.00;-20828.63;4993428;28;20462;-71
2020/12/25 00:48:08;;;;;;;2.10;1.10;;;5.00;99.90;;;5.53;100.00;-20832.81;4993539;28;20471;-71
2020/12/25 00:50:34;;;;;;;0.60;0.60;;;5.00;99.90;;;5.40;100.00;-20829.19;4995804;28;20958;-71
2020/12/25 00:53:02;;;;;;;0.60;0.60;;;5.00;99.90;;;5.31;100.00;-20826.69;5016222;28;20450;-71
2020/12/25 00:55:29;;;;;;;0.60;0.50;;;4.90;99.90;;;5.36;100.00;-20827.94;5010905;28;20448;-71
2020/12/25 00:57:56;;;;;;;0.60;0.60;;;4.90;99.90;;;5.33;100.00;-20827.38;5011814;28;20442;-71
2020/12/25 01:00:26;;;;;;;0.60;0.60;;;5.00;99.90;;;5.31;100.00;-20826.69;5011680;28;20449;-71
2020/12/25 01:02:53;;;;;;;0.60;0.60;;;4.90;99.90;;;5.35;100.00;-20827.66;5014404;28;20452;-71
2020/12/25 01:05:21;;;;;;;0.60;0.50;;;4.90;99.90;;;5.32;100.00;-20827.09;5016186;28;20452;-71
2020/12/25 01:07:48;;;;;;;0.60;0.60;;;4.90;99.90;;;5.25;100.00;-20825.00;5008765;28;20449;-71
2020/12/25 01:10:18;;;;;;;0.70;0.70;;;4.90;99.90;;;5.26;100.00;-20825.44;5004345;28;20978;-70
2020/12/25 01:12:48;;;;;;;1.40;1.30;;;4.90;99.90;;;5.43;100.00;-20830.03;5011804;28;20413;-71
2020/12/25 01:15:15;;;;;;;0.60;0.50;;;4.90;99.90;;;5.36;100.00;-20827.94;4996882;28;20427;-70
2020/12/25 01:17:42;;;;;;;0.60;0.60;;;4.90;99.90;;;5.33;100.00;-20827.38;4999363;28;20433;-70
2020/12/25 01:20:09;;;;;;;0.70;0.70;;;5.00;99.90;;;5.32;100.00;-20827.09;4996813;28;20434;-70
2020/12/25 01:22:37;;;;;;;0.60;0.50;;;4.90;99.90;;;5.41;100.00;-20829.31;5004207;28;20460;-70
2020/12/25 01:25:04;;;;;;;0.60;0.60;;;5.00;99.90;;;5.46;100.00;-20830.72;5015604;28;20426;-70
2020/12/25 01:27:32;;;;;;;0.60;0.60;;;4.90;99.90;;;5.47;100.00;-20831.00;5020195;28;20450;-70
2020/12/25 01:30:00;;;;;;;0.70;0.60;;;5.00;99.90;;;5.49;100.00;-20831.56;5005731;28;20446;-70
2020/12/25 01:32:26;;;;;;;0.60;0.60;;;5.00;99.90;;;5.36;100.00;-20827.94;5002186;28;20435;-71
2020/12/25 01:34:53;;;;;;;0.60;0.50;;;4.90;99.90;;;5.48;100.00;-20831.41;4996599;28;20501;-71
2020/12/25 01:37:20;;;;;;;2.17;1.67;;;5.00;99.90;;;5.47;100.00;-20831.00;5005936;28;20930;-71
2020/12/25 01:39:47;;;;;;;0.60;0.50;;;5.00;99.90;;;5.50;100.00;-20831.97;5009273;28;20465;-71
2020/12/25 01:42:14;;;;;;;0.67;0.60;;;5.00;99.90;;;5.45;100.00;-20830.44;5002330;28;20446;-71
2020/12/25 01:44:42;;;;;;;0.70;0.70;;;5.00;99.90;;;5.29;100.00;-20826.25;5007115;28;20430;-71
2020/12/25 01:47:09;;;;;;;0.60;0.50;;;4.90;99.90;;;5.40;100.00;-20829.19;5015151;28;20485;-71
2020/12/25 01:49:37;;;;;;;0.60;0.60;;;4.90;99.90;;;5.32;100.00;-20827.09;5009692;28;20521;-70
2020/12/25 01:52:04;;;;;;;0.60;0.60;;;4.90;99.90;;;5.31;100.00;-20826.81;5014222;28;20452;-70
2020/12/25 01:54:32;;;;;;;0.60;0.50;;;4.90;99.90;;;5.30;100.00;-20826.56;5013842;28;20542;-70
2020/12/25 01:57:00;;;;;;;0.60;0.53;;;4.80;99.90;;;5.35;100.00;-20827.66;5016292;28;20806;-71
2020/12/25 01:59:28;;;;;;;0.60;0.60;;;4.80;99.90;;;5.21;100.00;-20823.91;5006180;28;20526;-70
2020/12/25 02:01:57;;;;;;;0.60;0.60;;;4.80;99.90;;;5.16;100.00;-20822.66;5013621;28;20446;-70
2020/12/25 02:04:24;;;;;;;0.60;0.50;;;4.80;99.90;;;5.12;100.00;-20821.53;5011581;28;20477;-70
2020/12/25 02:06:52;;;;;;;0.60;0.60;;;4.70;99.90;;;4.98;100.00;-20817.63;5009669;28;20481;-71
2020/12/25 02:09:20;;;;;;;0.70;0.60;;;4.60;99.90;;;4.90;100.00;-20815.41;5004479;28;20302;-71
2020/12/25 02:11:47;;;;;;;0.60;0.60;;;4.50;99.90;;;4.78;100.00;-20812.34;5006498;28;20534;-68
2020/12/25 02:14:15;;;;;;;0.60;0.60;;;4.50;99.90;;;4.65;100.00;-20808.72;5014776;28;20434;-70
2020/12/25 02:16:42;;;;;;;0.60;0.60;;;4.30;99.90;;;4.61;100.00;-20807.63;5015695;28;20176;-70
2020/12/25 02:19:11;;;;;;;0.60;0.50;;;4.30;99.90;;;4.62;100.00;-20807.88;5015277;28;20489;-69
2020/12/25 02:21:39;;;;;;;0.73;0.73;;;4.30;99.90;;;4.58;100.00;-20806.78;5013501;28;20441;-69
2020/12/25 02:24:08;;;;;;;0.60;0.60;;;4.30;99.90;;;4.59;100.00;-20807.19;5015277;28;20414;-69
2020/12/25 02:26:36;;;;;;;0.60;0.60;;;4.30;99.90;;;4.64;100.00;-20808.44;5015172;28;20540;-69
2020/12/25 02:29:03;;;;;;;0.60;0.60;;;4.30;99.90;;;4.71;100.00;-20810.41;5004637;28;20442;-70
2020/12/25 02:31:31;;;;;;;0.60;0.60;;;4.30;99.90;;;4.70;100.00;-20810.13;5005419;28;20888;-70
2020/12/25 02:34:07;;;;;;;0.60;0.55;;;4.30;99.90;;;4.82;100.00;-20813.47;5007558;28;20560;-69
2020/12/25 02:36:39;;;;;;;0.60;0.50;;;4.40;99.90;;;4.75;100.00;-20811.50;5013857;28;20237;-69
2020/12/25 02:39:11;;;;;;;0.60;0.50;;;4.40;99.90;;;4.70;100.00;-20809.97;5014097;28;20433;-69
2020/12/25 02:41:39;;;;;;;0.60;0.60;;;4.30;99.90;;;4.76;100.00;-20811.66;5008834;28;20274;-70
2020/12/25 02:44:10;;;;;;;0.60;0.60;;;4.30;99.90;;;4.70;100.00;-20810.13;5012346;28;20481;-70
2020/12/25 02:46:38;;;;;;;0.60;0.50;;;4.30;99.90;;;4.69;100.00;-20809.69;5015008;28;20504;-69
2020/12/25 02:49:06;;;;;;;0.60;0.60;;;4.30;99.90;;;4.73;100.00;-20810.94;5014696;28;20450;-70
2020/12/25 02:51:33;;;;;;;0.60;0.50;;;4.30;99.90;;;4.71;100.00;-20810.41;5014176;28;20938;-69
2020/12/25 02:54:01;;;;;;;0.60;0.50;;;4.30;99.90;;;4.52;100.00;-20805.09;5007237;28;20804;-70
2020/12/25 02:56:28;;;;;;;0.60;0.60;;;4.20;99.90;;;4.49;100.00;-20804.25;5010243;28;20430;-69
2020/12/25 02:58:55;;;;;;;0.70;0.60;;;4.20;99.90;;;4.32;100.00;-20799.66;4993397;28;20934;-69
2020/12/25 03:01:22;;;;;;;0.70;0.60;;;4.10;99.90;;;4.31;100.00;-20799.41;5007837;28;20937;-69
2020/12/25 03:03:49;;;;;;;0.60;0.50;;;4.10;99.90;;;4.19;100.00;-20796.19;5014439;28;20455;-69
2020/12/25 03:06:16;;;;;;;1.38;1.27;;;4.00;99.90;;;4.11;100.00;-20793.97;5013944;28;20834;-69
2020/12/25 03:08:46;;;;;;;0.60;0.60;;;4.00;99.90;;;4.05;100.00;-20792.28;5008424;28;20229;-70
2020/12/25 03:11:14;;;;;;;0.70;0.60;;;3.90;99.90;;;4.06;100.00;-20792.69;5014385;28;20418;-69
2020/12/25 03:13:41;;;;;;;0.60;0.50;;;3.90;99.90;;;4.01;100.00;-20791.31;5014279;28;20187;-69
2020/12/25 03:16:08;;;;;;;0.60;0.60;;;3.80;99.90;;;4.05;100.00;-20792.28;5014010;28;20177;-69
2020/12/25 03:18:35;;;;;;;0.60;0.50;;;3.80;99.90;;;3.90;100.00;-20788.09;5029256;28;20246;-69
2020/12/25 03:21:02;;;;;;;0.60;0.57;;;3.80;99.90;;;3.92;100.00;-20788.66;5013707;28;20274;-68
2020/12/25 03:23:29;;;;;;;0.60;0.50;;;3.70;99.90;;;3.86;100.00;-20787.25;5014600;28;20672;-69
2020/12/25 03:25:55;;;;;;;0.60;0.50;;;3.70;99.90;;;4.08;100.00;-20793.13;5012325;28;20261;-69
2020/12/25 03:28:23;;;;;;;0.60;0.50;;;3.80;99.90;;;4.02;100.00;-20791.44;4994821;28;20202;-70
2020/12/25 03:30:50;;;;;;;0.60;0.50;;;3.80;99.90;;;4.06;100.00;-20792.69;5001746;28;20265;-69
2020/12/25 03:33:17;;;;;;;0.60;0.60;;;3.80;99.90;;;4.12;100.00;-20794.22;5014084;28;20261;-70
2020/12/25 03:35:49;;;;;;;0.60;0.50;;;3.90;99.90;;;4.24;100.00;-20797.59;5014573;28;20188;-68
2020/12/25 03:38:17;;;;;;;0.60;0.60;;;3.90;99.90;;;4.26;100.00;-20798.13;5006576;28;20269;-69
2020/12/25 03:40:44;;;;;;;0.60;0.60;;;3.90;99.90;;;4.21;100.00;-20796.75;4999054;28;20707;-69
2020/12/25 03:43:11;;;;;;;0.60;0.60;;;3.90;99.90;;;4.22;100.00;-20796.88;5013894;28;20187;-68
2020/12/25 03:45:38;;;;;;;0.60;0.60;;;3.90;99.90;;;4.23;100.00;-20797.31;5013933;28;20190;-69
2020/12/25 03:48:06;;;;;;;0.60;0.60;;;3.90;99.90;;;4.29;100.00;-20798.97;5013582;28;20230;-68
2020/12/25 03:50:32;;;;;;;0.60;0.60;;;3.90;99.90;;;4.31;100.00;-20799.53;5013978;28;20203;-69
2020/12/25 03:52:59;;;;;;;0.60;0.50;;;4.00;99.90;;;4.20;100.00;-20796.47;5013682;28;20440;-68
2020/12/25 03:55:26;;;;;;;0.60;0.50;;;3.90;99.90;;;4.30;100.00;-20799.25;5013782;28;20214;-69
2020/12/25 03:57:53;;;;;;;0.60;0.50;;;3.90;99.90;;;4.32;100.00;-20799.81;5013559;28;20596;-69
2020/12/25 04:00:20;;;;;;;0.60;0.50;;;4.00;99.90;;;4.27;100.00;-20798.41;5013125;28;20203;-68
2020/12/25 04:02:48;;;;;;;0.60;0.50;;;3.90;99.90;;;4.29;100.00;-20798.97;5013308;28;20175;-69
2020/12/25 04:05:15;;;;;;;0.60;0.60;;;3.90;99.90;;;4.33;100.00;-20800.09;5013489;28;20229;-69
2020/12/25 04:07:42;;;;;;;0.60;0.50;;;3.90;99.90;;;4.17;100.00;-20795.50;5013352;28;20210;-69
2020/12/25 04:10:09;;;;;;;0.60;0.60;;;3.90;99.90;;;3.94;100.00;-20789.34;5013375;28;20615;-69
2020/12/25 04:12:36;;;;;;;0.60;0.50;;;3.80;99.90;;;3.96;100.00;-20789.78;5013759;28;20240;-70
2020/12/25 04:15:04;;;;;;;0.60;0.50;;;3.80;99.90;;;3.93;100.00;-20789.06;4998690;28;20528;-70
2020/12/25 04:17:31;;;;;;;0.60;0.50;;;3.70;99.90;;;3.81;100.00;-20785.88;5003027;28;20293;-71
2020/12/25 04:19:59;;;;;;;0.60;0.60;;;3.60;99.90;;;4.00;100.00;-20790.88;5028616;28;20474;-71
2020/12/25 04:22:26;;;;;;;0.60;0.60;;;3.70;99.90;;;4.11;100.00;-20794.09;5011989;28;20241;-71
2020/12/25 04:24:53;;;;;;;0.60;0.60;;;3.70;99.90;;;4.19;100.00;-20796.19;5012082;28;20213;-70
2020/12/25 04:27:19;;;;;;;0.60;0.50;;;3.80;99.90;;;4.20;100.00;-20796.47;5013555;28;20341;-71
2020/12/25 04:29:46;;;;;;;0.60;0.50;;;3.80;99.90;;;4.19;100.00;-20796.19;5013047;28;20522;-69
2020/12/25 04:32:13;;;;;;;0.60;0.57;;;3.80;99.90;;;4.08;100.00;-20793.13;5012801;28;20195;-70
2020/12/25 04:34:40;;;;;;;1.17;1.08;;;3.80;99.90;;;4.01;100.00;-20791.31;5011794;28;20222;-70
2020/12/25 04:37:08;;;;;;;0.60;0.50;;;3.70;99.90;;;4.18;100.00;-20795.91;5014901;28;20640;-69
2020/12/25 04:39:35;;;;;;;0.60;0.50;;;3.80;99.90;;;4.09;100.00;-20793.41;5017640;28;20203;-69
2020/12/25 04:42:02;;;;;;;0.60;0.50;;;3.70;99.90;;;4.05;100.00;-20792.28;5017368;28;20207;-69
2020/12/25 04:44:29;;;;;;;0.60;0.60;;;3.70;99.90;;;3.94;100.00;-20789.22;5015920;28;20286;-70
2020/12/25 04:47:07;;;;;;;0.60;0.50;;;3.70;99.90;;;3.91;100.00;-20788.38;5016303;28;20213;-69
2020/12/25 04:49:35;;;;;;;0.60;0.52;;;3.60;99.90;;;3.76;100.00;-20784.34;5005049;28;20212;-69
2020/12/25 04:52:04;;;;;;;0.60;0.50;;;3.50;99.90;;;3.66;100.00;-20781.69;5016889;28;20199;-69
2020/12/25 04:54:32;;;;;;;0.70;0.60;;;3.40;99.90;;;3.63;100.00;-20780.84;5016249;28;20293;-68
2020/12/25 04:56:59;;;;;;;0.60;0.50;;;3.40;99.90;;;3.42;100.00;-20775.00;5016750;28;20199;-69
2020/12/25 04:59:27;;;;;;;0.60;0.50;;;3.20;99.90;;;3.33;100.00;-20772.75;5010009;28;20218;-69
2020/12/25 05:01:55;;;;;;;0.60;0.50;;;3.20;99.90;;;3.44;100.00;-20775.56;5015077;28;20191;-69
2020/12/25 05:04:24;;;;;;;0.60;0.60;;;3.20;99.90;;;3.29;100.00;-20771.66;5016464;28;20237;-70
2020/12/25 05:06:52;;;;;;;0.60;0.50;;;3.10;99.90;;;3.27;100.00;-20771.09;5016530;28;20222;-70
2020/12/25 05:09:22;;;;;;;0.60;0.50;;;3.00;99.90;;;3.13;100.00;-20767.31;5016709;28;20206;-70
2020/12/25 05:11:52;;;;;;;0.60;0.60;;;3.00;99.90;;;3.09;100.00;-20766.06;5031959;28;20194;-71
2020/12/25 05:14:24;;;;;;;0.65;0.60;;;2.90;99.90;;;3.02;100.00;-20764.25;5016596;28;20187;-70
2020/12/25 05:16:54;;;;;;;0.60;0.60;;;2.90;99.90;;;2.98;100.00;-20763.00;5007645;28;20654;-70
2020/12/25 05:19:26;;;;;;;0.70;0.60;;;2.80;99.90;;;2.72;100.00;-20755.88;5009152;28;20225;-70
2020/12/25 05:21:56;;;;;;;0.60;0.60;;;2.70;99.90;;;2.74;100.00;-20756.59;5016223;28;20268;-70
2020/12/25 05:24:23;;;;;;;0.60;0.60;;;2.60;99.90;;;2.52;100.00;-20750.44;5016347;28;20190;-70
2020/12/25 05:26:53;;;;;;;0.60;0.60;;;2.50;99.90;;;2.52;100.00;-20750.44;5015002;28;20207;-70
2020/12/25 05:29:22;;;;;;;0.60;0.60;;;2.50;99.90;;;2.50;100.00;-20750.00;5014465;28;20191;-70
2020/12/25 05:31:50;;;;;;;0.60;0.50;;;2.50;99.90;;;2.43;100.00;-20748.06;5016290;28;20203;-70
2020/12/25 05:34:18;;;;;;;0.60;0.60;;;2.40;99.90;;;2.34;100.00;-20745.69;5014595;28;20210;-70
2020/12/25 05:36:50;;;;;;;0.60;0.50;;;2.30;99.90;;;2.51;100.00;-20750.16;5016028;28;20683;-70
2020/12/25 05:39:28;;;;;;;0.60;0.60;;;2.40;99.90;;;2.30;100.00;-20744.44;5016265;28;20187;-70
2020/12/25 05:41:58;;;;;;;0.60;0.60;;;2.30;99.90;;;2.28;100.00;-20744.00;5016194;28;20183;-70
2020/12/25 05:44:27;;;;;;;0.60;0.50;;;2.20;99.90;;;2.38;100.00;-20746.81;5016132;28;20632;-70
2020/12/25 05:46:58;;;;;;;0.60;0.60;;;2.30;99.90;;;2.22;100.00;-20742.34;5015988;28;20266;-70
2020/12/25 05:49:27;;;;;;;0.70;0.60;;;2.20;99.90;;;2.28;100.00;-20744.00;5014727;28;20211;-70
2020/12/25 05:51:55;;;;;;;0.60;0.50;;;2.30;99.90;;;2.23;100.00;-20742.63;5015961;28;20183;-70
2020/12/25 05:54:24;;;;;;;0.60;0.60;;;2.20;99.90;;;2.03;100.00;-20737.03;5015871;28;20241;-70
2020/12/25 05:56:53;;;;;;;0.70;0.60;;;2.00;99.90;;;2.03;100.00;-20737.03;5016077;28;20230;-70
2020/12/25 05:59:26;;;;;;;0.60;0.50;;;2.00;99.90;;;2.11;100.00;-20739.28;5016167;28;20195;-70
2020/12/25 06:01:55;;;;;;;0.60;0.50;;;2.10;99.90;;;2.06;100.00;-20737.88;5015655;28;20214;-71
2020/12/25 06:04:23;;;;;;;0.60;0.60;;;2.00;99.90;;;2.15;100.00;-20740.38;5013822;28;20207;-70
2020/12/25 06:06:51;;;;;;;0.60;0.52;;;2.10;99.90;;;2.20;100.00;-20741.63;4995684;28;20301;-70
2020/12/25 06:09:20;;;;;;;0.60;0.60;;;2.10;99.90;;;2.13;100.00;-20739.97;4996610;28;20211;-69
2020/12/25 06:11:50;;;;;;;0.60;0.60;;;2.10;99.90;;;1.96;100.00;-20735.06;5006510;28;20313;-69
2020/12/25 06:14:18;;;;;;;0.60;0.60;;;1.90;99.90;;;1.73;100.00;-20728.94;5016093;28;20191;-69
2020/12/25 06:16:55;;;;;;;0.60;0.60;;;1.70;99.90;;;1.59;100.00;-20725.03;5015197;28;20183;-69
2020/12/25 06:19:35;;;;;;;0.60;0.60;;;1.50;99.90;;;1.49;100.00;-20722.22;5015345;28;20260;-69
2020/12/25 06:22:11;;;;;;;0.70;0.50;;;1.40;99.90;;;1.47;100.00;-20721.81;5015231;28;20269;-69
2020/12/25 06:24:38;;;;;;;0.60;0.50;;;1.40;99.90;;;1.55;100.00;-20724.03;5015160;28;20214;-69
2020/12/25 06:27:06;;;;;;;0.60;0.60;;;1.60;99.90;;;1.75;100.00;-20729.50;5014792;28;20290;-69
2020/12/25 06:29:33;;;;;;;0.60;0.60;;;1.60;99.90;;;1.89;100.00;-20733.41;5014839;28;20179;-68
2020/12/25 06:32:05;;;;;;;0.60;0.60;;;1.70;99.90;;;1.99;100.00;-20735.91;5015421;28;20237;-69
2020/12/25 06:34:43;;;;;;;0.60;0.60;;;1.80;99.90;;;2.23;100.00;-20742.63;5014925;28;20237;-70
2020/12/25 06:37:14;;;;;;;0.60;0.60;;;2.00;99.90;;;2.37;100.00;-20746.53;5014432;28;20230;-68
2020/12/25 06:39:48;;;;;;;0.60;0.50;;;2.10;99.90;;;2.51;100.00;-20750.16;5013795;28;20179;-68
2020/12/25 06:42:28;;;;;;;0.60;0.50;;;2.20;99.90;;;2.52;100.00;-20750.44;5013560;28;20195;-69
2020/12/25 06:44:56;;;;;;;0.60;0.50;;;2.20;99.90;;;2.50;100.00;-20749.88;5014695;28;20266;-71
2020/12/25 06:47:29;;;;;;;0.60;0.60;;;2.20;99.90;;;2.41;100.00;-20747.66;5014631;28;20301;-70
2020/12/25 06:49:57;;;;;;;0.60;0.55;;;2.10;99.90;;;2.35;100.00;-20745.97;5014709;28;20687;-70
2020/12/25 06:52:29;;;;;;;0.60;0.60;;;2.10;99.90;;;2.20;100.00;-20741.78;5014501;28;20245;-70
2020/12/25 06:54:56;;;;;;;0.60;0.60;;;2.00;99.90;;;2.13;100.00;-20739.81;5013630;28;20195;-70
2020/12/25 06:57:27;;;;;;;0.60;0.55;;;1.90;99.90;;;2.02;100.00;-20736.75;5014908;28;20362;-69
2020/12/25 07:00:01;;;;;;;0.60;0.60;;;1.80;99.90;;;1.79;100.00;-20730.59;5014271;28;20179;-69
2020/12/25 07:02:29;;;;;;;0.60;0.50;;;1.70;99.90;;;1.79;100.00;-20730.59;5012829;28;20180;-69
2020/12/25 07:05:01;;;;;;;0.60;0.60;;;1.70;99.90;;;1.73;100.00;-20728.78;4995078;28;20715;-69
2020/12/25 07:07:34;;;;;;;0.60;0.52;;;1.60;99.90;;;1.66;100.00;-20726.97;5008722;28;20753;-70
2020/12/25 07:10:08;;;;;;;0.60;0.60;;;1.50;99.90;;;1.67;100.00;-20727.25;5013901;28;20675;-70
2020/12/25 07:12:36;;;;;;;0.68;0.60;;;1.50;99.90;;;1.60;100.00;-20725.28;5014317;28;20239;-68
2020/12/25 07:15:05;;;;;;;0.65;0.60;;;1.60;99.90;;;1.65;100.00;-20726.69;5014070;28;20613;-70
2020/12/25 07:17:33;;;;;;;0.60;0.50;;;1.50;99.90;;;1.66;100.00;-20726.97;5014779;28;20199;-69
2020/12/25 07:20:00;;;;;;;0.60;0.60;;;1.50;99.90;;;1.82;100.00;-20731.44;5003581;28;20239;-69
2020/12/25 07:22:27;;;;;;;0.60;0.50;;;1.60;99.90;;;1.91;100.00;-20733.97;5012460;28;20568;-70
2020/12/25 07:24:54;;;;;;;0.60;0.60;;;1.60;99.90;;;2.05;100.00;-20737.59;5008309;28;20218;-70
2020/12/25 07:27:21;;;;;;;0.60;0.60;;;1.70;99.90;;;2.16;100.00;-20740.66;4995136;28;20577;-68
2020/12/25 07:29:50;;;;;;;0.60;0.50;;;1.80;99.90;;;2.05;100.00;-20737.72;4995143;28;20188;-70
2020/12/25 07:32:17;;;;;;;0.60;0.60;;;1.80;99.90;;;1.93;100.00;-20734.53;5014478;28;20225;-70
2020/12/25 07:34:45;;;;;;;0.60;0.50;;;1.70;99.90;;;1.93;100.00;-20734.38;5014367;28;20242;-70
2020/12/25 07:37:12;;;;;;;0.60;0.60;;;1.70;99.90;;;1.94;100.00;-20734.78;5012468;28;20265;-70
2020/12/25 07:39:39;;;;;;;0.60;0.50;;;1.60;99.90;;;2.06;100.00;-20737.88;5013243;28;20198;-69
2020/12/25 07:42:08;;;;;;;0.60;0.60;;;1.70;99.90;;;2.22;100.00;-20742.19;5013884;28;20675;-70
2020/12/25 07:44:35;;;;;;;0.60;0.50;;;1.80;99.90;;;2.41;100.00;-20747.50;5013898;28;20186;-70
2020/12/25 07:47:01;;;;;;;0.70;0.60;;;1.90;99.90;;;2.56;100.00;-20751.56;5012579;28;20674;-70
2020/12/25 07:49:29;;;;;;;0.60;0.52;;;2.10;99.90;;;2.69;100.00;-20755.03;5013390;28;20215;-69
2020/12/25 07:51:59;;;;;;;0.60;0.50;;;2.10;99.90;;;2.83;100.00;-20758.94;5013645;28;20278;-69
2020/12/25 07:54:26;;;;;;;0.60;0.55;;;2.20;99.90;;;3.00;100.00;-20763.56;5014034;28;20207;-70
2020/12/25 07:56:54;;;;;;;0.60;0.60;;;2.30;99.90;;;3.12;100.00;-20766.91;5013925;28;20523;-70
2020/12/25 07:59:23;;;;;;;0.60;0.60;;;2.30;99.90;;;3.22;100.00;-20769.69;5013853;28;20191;-69
2020/12/25 08:01:50;;;;;;;0.60;0.60;;;2.40;99.90;;;3.22;100.00;-20769.69;5013867;28;20257;-69
2020/12/25 08:04:17;;;;;;;0.60;0.60;;;2.50;99.90;;;3.27;100.00;-20771.09;5013120;28;20305;-69
2020/12/25 08:06:44;;;;;;;0.60;0.55;;;2.50;99.90;;;3.26;100.00;-20770.81;4997130;28;20270;-69
2020/12/25 08:09:14;;;;;;;0.60;0.50;;;2.50;99.90;;;3.28;100.00;-20771.22;4994113;28;20270;-69
2020/12/25 08:11:41;;;;;;;0.60;0.60;;;2.50;99.90;;;3.33;100.00;-20772.63;4996784;28;20237;-69
2020/12/25 08:14:10;;;;;;;0.60;0.50;;;2.60;99.90;;;3.47;100.00;-20776.41;5000601;28;20199;-70
2020/12/25 08:16:38;;;;;;;0.60;0.60;;;2.60;99.90;;;3.63;100.00;-20780.84;5000377;28;20246;-69
2020/12/25 08:19:06;;;;;;;0.60;0.55;;;2.70;99.90;;;3.56;100.00;-20778.91;5010754;28;20211;-69
2020/12/25 08:21:37;;;;;;;0.60;0.50;;;2.70;99.90;;;3.75;100.00;-20784.19;5020008;28;20631;-70
2020/12/25 08:24:06;;;;;;;0.60;0.60;;;2.80;99.90;;;3.68;100.00;-20782.25;5020291;28;20241;-69
2020/12/25 08:26:37;;;;;;;0.60;0.60;;;2.80;99.90;;;3.52;100.00;-20777.94;5019907;28;20232;-69
2020/12/25 08:29:04;;;;;;;0.60;0.50;;;2.70;99.90;;;3.51;100.00;-20777.66;5019063;28;20183;-69
2020/12/25 08:31:34;;;;;;;0.60;0.50;;;2.70;99.90;;;3.59;100.00;-20779.75;5015785;28;20194;-69
2020/12/25 08:34:02;;;;;;;0.60;0.60;;;2.70;99.90;;;3.60;100.00;-20780.00;5017988;28;20622;-69
2020/12/25 08:36:30;;;;;;;0.60;0.50;;;2.70;99.90;;;3.63;100.00;-20780.84;5019819;28;20225;-69
2020/12/25 08:39:06;;;;;;;0.60;0.50;;;2.70;99.90;;;3.71;100.00;-20782.94;5019701;28;20182;-69
2020/12/25 08:41:35;;;;;;;0.60;0.60;;;2.80;99.90;;;3.64;100.00;-20781.13;5018890;28;20558;-69
2020/12/25 08:44:09;;;;;;;0.60;0.50;;;2.80;99.90;;;3.39;100.00;-20774.44;4998841;28;20210;-69
2020/12/25 08:46:37;;;;;;;0.60;0.57;;;2.80;99.90;;;3.36;100.00;-20773.47;5018977;28;20264;-68
2020/12/25 08:49:04;;;;;;;0.60;0.60;;;2.80;99.90;;;3.18;100.00;-20768.59;5019935;28;20203;-70
2020/12/25 08:51:37;;;;;;;0.60;0.50;;;2.70;99.90;;;3.21;100.00;-20769.28;5019820;28;20581;-69
2020/12/25 08:54:05;;;;;;;0.60;0.50;;;2.60;99.90;;;3.10;100.00;-20766.34;4998624;28;20182;-70
2020/12/25 08:56:37;;;;;;;0.60;0.60;;;2.60;99.90;;;3.20;100.00;-20769.00;4999792;28;20238;-69
2020/12/25 08:59:07;;;;;;;0.60;0.60;;;2.60;99.90;;;3.04;100.00;-20764.69;5002130;28;20206;-69
2020/12/25 09:01:36;;;;;;;0.60;0.52;;;2.50;99.90;;;2.97;100.00;-20762.84;5019516;28;20194;-70
2020/12/25 09:04:04;;;;;;;0.60;0.60;;;2.50;99.90;;;3.01;100.00;-20763.84;5016511;28;20578;-69
2020/12/25 09:06:31;;;;;;;0.60;0.50;;;2.50;99.90;;;3.24;100.00;-20770.13;5010311;28;20257;-69
2020/12/25 09:08:59;;;;;;;0.60;0.50;;;2.60;99.90;;;3.36;100.00;-20773.47;5014875;28;20602;-69
2020/12/25 09:11:26;;;;;;;0.60;0.50;;;2.80;99.90;;;3.46;100.00;-20776.09;5030067;28;20266;-71
2020/12/25 09:13:54;;;;;;;0.60;0.50;;;2.80;99.90;;;3.62;100.00;-20780.56;5000368;28;20180;-71
2020/12/25 09:16:21;;;;;;;0.60;0.50;;;2.80;99.90;;;3.57;100.00;-20779.19;5007927;28;20608;-71
2020/12/25 09:18:48;;;;;;;0.60;0.60;;;2.80;99.90;;;3.36;100.00;-20773.47;5018382;28;20226;-70
2020/12/25 09:21:16;;;;;;;0.60;0.50;;;2.80;99.90;;;3.19;100.00;-20768.84;5007536;28;20281;-71
2020/12/25 09:23:44;;;;;;;0.60;0.50;;;2.70;99.90;;;2.96;100.00;-20762.44;5012713;28;20192;-71
2020/12/25 09:26:13;;;;;;;0.60;0.50;;;2.60;99.90;;;3.14;100.00;-20767.59;5009481;28;20186;-71
2020/12/25 09:28:41;;;;;;;0.60;0.60;;;2.70;99.90;;;3.51;100.00;-20777.50;5016365;28;20187;-69
2020/12/25 09:31:12;;;;;;;0.60;0.50;;;2.90;99.90;;;3.61;100.00;-20780.28;5015938;28;20197;-69
2020/12/25 09:33:40;;;;;;;0.60;0.50;;;3.00;99.90;;;3.90;100.00;-20788.09;5009872;28;20223;-69
2020/12/25 09:36:09;;;;;;;0.60;0.60;;;3.10;99.90;;;4.21;100.00;-20796.59;5003004;28;20269;-69
2020/12/25 09:38:42;;;;;;;0.60;0.50;;;3.20;99.90;;;4.17;100.00;-20795.63;4999020;28;20656;-69
2020/12/25 09:41:12;;;;;;;0.60;0.50;;;3.30;99.90;;;4.36;100.00;-20800.94;5003878;28;20598;-70
2020/12/25 09:43:39;;;;;;;0.60;0.50;;;3.40;99.90;;;4.52;100.00;-20805.09;4996483;28;21021;-70
2020/12/25 09:46:06;;;;;;;0.60;0.60;;;3.50;99.90;;;4.61;100.00;-20807.63;5000021;28;20491;-69
2020/12/25 09:48:34;;;;;;;0.60;0.60;;;3.60;99.90;;;4.74;100.00;-20811.22;5015933;28;20473;-70
2020/12/25 09:51:02;;;;;;;0.60;0.57;;;3.70;99.90;;;4.70;100.00;-20809.97;5015100;28;20242;-70
2020/12/25 09:53:29;;;;;;;0.60;0.50;;;3.80;99.90;;;4.77;100.00;-20812.06;5015697;28;21000;-70
2020/12/25 09:55:56;;;;;;;0.60;0.60;;;3.70;99.90;;;4.74;100.00;-20811.09;5015589;28;20484;-69
2020/12/25 09:58:23;;;;;;;0.60;0.50;;;3.70;99.90;;;4.78;100.00;-20812.34;5015417;28;20430;-69
2020/12/25 10:00:51;;;;;;;0.60;0.50;;;3.80;99.90;;;4.99;100.00;-20818.06;5006993;28;20512;-69
2020/12/25 10:03:18;;;;;;;0.60;0.60;;;3.90;99.90;;;5.04;100.00;-20819.44;5013059;28;20582;-69
2020/12/25 10:05:45;;;;;;;0.60;0.50;;;4.00;99.90;;;5.14;100.00;-20822.09;5015613;28;20438;-69
2020/12/25 10:08:12;;;;;;;0.60;0.50;;;4.00;99.90;;;5.39;100.00;-20828.91;5002368;28;20463;-70
2020/12/25 10:10:39;;;;;;;0.60;0.50;;;4.10;99.90;;;5.29;100.00;-20826.25;5006559;28;20437;-70
2020/12/25 10:13:07;;;;;;;1.43;1.33;;;4.00;99.90;;;5.13;100.00;-20821.81;5015521;28;20828;-70
2020/12/25 10:15:39;;;;;;;0.60;0.60;;;4.00;99.90;;;5.30;100.00;-20826.41;5003769;28;20444;-71
2020/12/25 10:18:07;;;;;;;0.60;0.60;;;4.00;99.90;;;5.52;100.00;-20832.53;5004974;28;20461;-70
2020/12/25 10:20:34;;;;;;;0.60;0.60;;;4.20;99.90;;;5.80;100.00;-20840.03;4995672;28;20411;-72
2020/12/25 10:23:01;;;;;;;0.60;0.60;;;4.40;99.90;;;5.99;100.00;-20845.19;4995639;28;20517;-70
2020/12/25 10:25:28;;;;;;;0.70;0.60;;;4.40;99.90;;;6.15;100.00;-20849.66;5011439;28;20445;-70